Time;durP1;ratioP1;P1;durP2;ratioP2;P2;SDS_P1;SDS_P2;PMS_P1;PMS_P2;Temp;Humidity;BMP_temperature;BMP_pressure;BME280_temperature;BME280_humidity;BME280_pressure;Samples;Min_cycle;Max_cycle;Signal;HPM_P1;HPM_P2
2021/07/07 00:00:04;;;;;;;6.93;4.18;;;;;;;;;;10386140;28;20048;-23
2021/07/07 00:05:11;;;;;;;5.63;3.72;;;;;;;;;;10385186;28;20061;-23
2021/07/07 00:10:15;;;;;;;5.97;3.60;;;;;;;;;;10370231;28;20488;-23
2021/07/07 00:15:19;;;;;;;7.13;4.07;;;;;;;;;;10390580;28;20042;-24
2021/07/07 00:20:23;;;;;;;6.82;4.13;;;;;;;;;;10398396;28;20046;-24
2021/07/07 00:25:26;;;;;;;4.65;3.58;;;;;;;;;;10395631;28;20044;-24
2021/07/07 00:30:30;;;;;;;5.90;3.45;;;;;;;;;;10397572;28;20143;-24
2021/07/07 00:35:34;;;;;;;4.18;3.03;;;;;;;;;;10389606;28;20410;-24
2021/07/07 00:40:37;;;;;;;6.90;3.20;;;;;;;;;;10391435;28;20049;-24
2021/07/07 00:45:40;;;;;;;6.43;3.60;;;;;;;;;;10390784;28;20388;-24
2021/07/07 00:50:44;;;;;;;5.55;2.90;;;;;;;;;;10397875;28;20200;-23
2021/07/07 00:55:47;;;;;;;7.28;2.72;;;;;;;;;;10395572;28;20042;-24
2021/07/07 01:00:51;;;;;;;7.50;3.17;;;;;;;;;;10397678;28;20033;-24
2021/07/07 01:05:55;;;;;;;5.28;3.33;;;;;;;;;;10393844;28;20122;-23
2021/07/07 01:10:58;;;;;;;8.82;3.38;;;;;;;;;;10396350;28;20490;-24
2021/07/07 01:16:04;;;;;;;5.53;3.35;;;;;;;;;;10386064;28;20053;-24
2021/07/07 01:21:08;;;;;;;6.63;3.28;;;;;;;;;;10394795;28;20049;-24
2021/07/07 01:26:15;;;;;;;5.80;2.97;;;;;;;;;;10386986;28;20053;-24
2021/07/07 01:31:18;;;;;;;4.43;3.17;;;;;;;;;;10395442;28;20482;-24
2021/07/07 01:36:20;;;;;;;5.80;2.88;;;;;;;;;;10394431;28;20038;-24
2021/07/07 01:41:24;;;;;;;5.32;2.72;;;;;;;;;;10394742;28;20041;-24
2021/07/07 01:46:28;;;;;;;5.75;2.80;;;;;;;;;;10390244;28;20049;-24
2021/07/07 01:51:31;;;;;;;5.50;3.00;;;;;;;;;;10387095;28;20038;-24
2021/07/07 01:56:35;;;;;;;5.13;3.03;;;;;;;;;;10388562;28;20100;-24
2021/07/07 02:01:37;;;;;;;4.63;2.80;;;;;;;;;;10394436;28;20037;-24
2021/07/07 02:06:40;;;;;;;4.70;2.80;;;;;;;;;;10391863;28;20771;-24
2021/07/07 02:11:44;;;;;;;4.55;3.15;;;;;;;;;;10388479;28;20037;-25
2021/07/07 02:16:47;;;;;;;4.55;2.38;;;;;;;;;;10386364;28;20889;-25
2021/07/07 02:21:50;;;;;;;5.97;2.85;;;;;;;;;;10392964;28;20479;-25
2021/07/07 02:26:54;;;;;;;6.07;3.28;;;;;;;;;;10390282;28;20243;-24
2021/07/07 02:31:57;;;;;;;6.47;3.40;;;;;;;;;;10380603;28;20048;-24
2021/07/07 02:37:00;;;;;;;5.82;3.45;;;;;;;;;;10390653;28;20095;-24
2021/07/07 02:42:04;;;;;;;4.28;3.00;;;;;;;;;;10391882;28;20034;-23
2021/07/07 02:47:07;;;;;;;5.93;3.25;;;;;;;;;;10384368;28;21322;-24
2021/07/07 02:52:10;;;;;;;5.10;3.38;;;;;;;;;;10383966;28;20042;-24
2021/07/07 02:57:15;;;;;;;7.82;3.35;;;;;;;;;;10390194;28;20049;-24
2021/07/07 03:02:18;;;;;;;5.75;2.85;;;;;;;;;;10382212;28;20050;-24
2021/07/07 03:07:22;;;;;;;6.50;3.95;;;;;;;;;;10389310;28;20041;-25
2021/07/07 03:12:26;;;;;;;4.55;2.42;;;;;;;;;;10391518;28;20047;-24
2021/07/07 03:17:29;;;;;;;6.25;2.92;;;;;;;;;;10389536;28;20053;-24
2021/07/07 03:22:32;;;;;;;3.55;2.63;;;;;;;;;;10385337;28;20045;-24
2021/07/07 03:27:36;;;;;;;6.78;2.72;;;;;;;;;;10378189;28;20054;-24
2021/07/07 03:32:39;;;;;;;5.75;2.72;;;;;;;;;;10388920;28;20056;-23
2021/07/07 03:37:42;;;;;;;6.05;3.17;;;;;;;;;;10386558;28;20042;-24
2021/07/07 03:42:47;;;;;;;5.90;3.25;;;;;;;;;;10380475;28;20916;-24
2021/07/07 03:47:50;;;;;;;6.72;3.60;;;;;;;;;;10384040;28;20050;-26
2021/07/07 03:52:53;;;;;;;7.15;3.80;;;;;;;;;;10390674;28;20072;-23
2021/07/07 03:57:58;;;;;;;10.95;4.85;;;;;;;;;;10391664;28;20049;-23
2021/07/07 04:03:01;;;;;;;7.38;4.47;;;;;;;;;;10397347;28;20041;-23
2021/07/07 04:08:04;;;;;;;6.68;4.25;;;;;;;;;;10394923;28;20045;-23
2021/07/07 04:13:08;;;;;;;7.05;4.03;;;;;;;;;;10388571;28;20120;-22
2021/07/07 04:18:12;;;;;;;9.95;3.97;;;;;;;;;;10392970;28;20538;-23
2021/07/07 04:23:16;;;;;;;4.78;3.65;;;;;;;;;;10392132;28;20037;-23
2021/07/07 04:28:20;;;;;;;7.10;3.95;;;;;;;;;;10388743;28;20057;-23
2021/07/07 04:33:26;;;;;;;11.38;4.22;;;;;;;;;;10394825;28;20121;-24
2021/07/07 04:38:29;;;;;;;8.35;4.25;;;;;;;;;;10396800;28;20040;-24
2021/07/07 04:43:33;;;;;;;7.32;4.10;;;;;;;;;;10391857;28;20037;-25
2021/07/07 04:48:35;;;;;;;7.07;3.30;;;;;;;;;;10397115;28;20037;-24
2021/07/07 04:53:38;;;;;;;5.82;4.07;;;;;;;;;;10395302;28;20046;-24
2021/07/07 04:58:42;;;;;;;10.27;4.05;;;;;;;;;;10407312;28;20752;-24
2021/07/07 05:03:45;;;;;;;6.53;3.47;;;;;;;;;;10390871;28;20768;-26
2021/07/07 05:08:48;;;;;;;4.68;3.70;;;;;;;;;;10397926;28;20077;-25
2021/07/07 05:13:52;;;;;;;7.20;3.30;;;;;;;;;;10388697;28;20036;-25
2021/07/07 05:18:56;;;;;;;4.10;2.85;;;;;;;;;;10387269;28;20509;-25
2021/07/07 05:23:58;;;;;;;7.28;3.17;;;;;;;;;;10394184;28;20045;-23
2021/07/07 05:29:03;;;;;;;4.97;2.78;;;;;;;;;;10390097;28;20057;-24
2021/07/07 05:34:06;;;;;;;4.18;3.28;;;;;;;;;;10388166;28;20538;-23
2021/07/07 05:39:08;;;;;;;5.32;3.50;;;;;;;;;;10394406;28;20049;-23
2021/07/07 05:44:31;;;;;;;5.15;3.17;;;;;;;;;;10389544;28;20071;-23
2021/07/07 05:49:34;;;;;;;7.75;3.30;;;;;;;;;;10392288;28;20518;-23
2021/07/07 05:54:37;;;;;;;6.70;3.65;;;;;;;;;;10388040;28;20033;-23
2021/07/07 05:59:41;;;;;;;5.00;2.95;;;;;;;;;;10388762;28;20049;-23
2021/07/07 06:04:44;;;;;;;5.53;3.53;;;;;;;;;;10390872;28;20048;-22
2021/07/07 06:09:47;;;;;;;4.40;3.10;;;;;;;;;;10393632;28;20522;-22
2021/07/07 06:14:51;;;;;;;6.78;3.30;;;;;;;;;;10390703;28;20033;-23
2021/07/07 06:19:54;;;;;;;4.70;3.42;;;;;;;;;;10392265;28;20045;-25
2021/07/07 06:24:56;;;;;;;4.13;3.28;;;;;;;;;;10382429;28;20041;-23
2021/07/07 06:30:00;;;;;;;6.50;3.58;;;;;;;;;;10384908;28;20060;-24
2021/07/07 06:35:04;;;;;;;6.32;3.95;;;;;;;;;;10385639;28;20043;-23
2021/07/07 06:40:08;;;;;;;5.65;3.63;;;;;;;;;;10390509;28;20047;-23
2021/07/07 06:45:13;;;;;;;6.10;4.20;;;;;;;;;;10384534;28;20045;-23
2021/07/07 06:50:16;;;;;;;12.77;5.05;;;;;;;;;;10391338;28;20049;-23
2021/07/07 06:55:21;;;;;;;7.13;4.95;;;;;;;;;;10390416;28;20034;-23
2021/07/07 07:00:25;;;;;;;8.75;4.68;;;;;;;;;;10386864;28;20049;-23
2021/07/07 07:05:28;;;;;;;7.45;5.00;;;;;;;;;;10383215;28;20033;-23
2021/07/07 07:10:31;;;;;;;10.15;5.00;;;;;;;;;;10387137;28;20684;-24
2021/07/07 07:15:35;;;;;;;8.23;5.30;;;;;;;;;;10389432;28;20884;-23
2021/07/07 07:20:39;;;;;;;8.00;5.35;;;;;;;;;;10387792;28;20107;-23
2021/07/07 07:25:41;;;;;;;7.70;5.32;;;;;;;;;;10389344;28;20049;-23
2021/07/07 07:30:47;;;;;;;6.35;4.35;;;;;;;;;;10387618;28;20159;-23
2021/07/07 07:35:50;;;;;;;7.25;4.30;;;;;;;;;;10382512;28;20049;-23
2021/07/07 07:40:53;;;;;;;5.20;3.25;;;;;;;;;;10380261;28;20049;-23
2021/07/07 07:45:59;;;;;;;5.53;3.72;;;;;;;;;;10385743;28;20037;-23
2021/07/07 07:51:03;;;;;;;5.47;3.55;;;;;;;;;;10388082;28;20403;-23
2021/07/07 07:56:07;;;;;;;3.65;2.50;;;;;;;;;;10388604;28;20045;-24
2021/07/07 08:01:12;;;;;;;5.50;3.38;;;;;;;;;;10391713;28;20487;-23
2021/07/07 08:06:15;;;;;;;5.32;2.75;;;;;;;;;;10386539;28;20454;-23
2021/07/07 08:11:18;;;;;;;4.10;2.58;;;;;;;;;;10381685;28;20094;-23
2021/07/07 08:16:23;;;;;;;5.47;3.50;;;;;;;;;;10383584;28;20057;-23
2021/07/07 08:21:26;;;;;;;5.47;3.65;;;;;;;;;;10390686;28;20989;-24
2021/07/07 08:26:29;;;;;;;5.85;3.50;;;;;;;;;;10388102;28;20046;-23
2021/07/07 08:31:34;;;;;;;6.32;3.72;;;;;;;;;;10382527;28;20081;-24
2021/07/07 08:36:37;;;;;;;6.40;3.67;;;;;;;;;;10384063;28;20107;-24
2021/07/07 08:41:41;;;;;;;7.40;3.63;;;;;;;;;;10393299;28;20041;-24
2021/07/07 08:46:45;;;;;;;7.00;3.90;;;;;;;;;;10387735;28;20056;-24
2021/07/07 08:51:48;;;;;;;5.25;3.60;;;;;;;;;;10201199;28;283116;-24
2021/07/07 08:56:51;;;;;;;4.90;3.28;;;;;;;;;;10351082;28;20042;-25
2021/07/07 09:02:01;;;;;;;6.15;3.78;;;;;;;;;;10352277;28;20506;-24
2021/07/07 09:07:05;;;;;;;5.55;3.55;;;;;;;;;;10355303;28;20054;-23
2021/07/07 09:12:15;;;;;;;6.80;4.30;;;;;;;;;;10353653;28;20115;-24
2021/07/07 09:17:20;;;;;;;9.05;3.97;;;;;;;;;;10346799;28;20046;-24
2021/07/07 09:22:23;;;;;;;6.07;3.72;;;;;;;;;;10354494;28;20053;-24
2021/07/07 09:27:33;;;;;;;4.55;3.33;;;;;;;;;;10356597;28;20301;-24
2021/07/07 09:32:42;;;;;;;6.95;3.10;;;;;;;;;;10352046;28;20457;-24
2021/07/07 09:37:48;;;;;;;4.47;3.65;;;;;;;;;;10346849;28;20509;-24
2021/07/07 09:42:51;;;;;;;5.22;3.55;;;;;;;;;;10354042;28;20117;-24
2021/07/07 09:47:56;;;;;;;4.65;3.03;;;;;;;;;;10348069;28;20436;-24
2021/07/07 09:52:58;;;;;;;4.95;3.53;;;;;;;;;;10347992;28;20030;-24
2021/07/07 09:58:01;;;;;;;5.63;3.63;;;;;;;;;;10353494;28;20045;-24
2021/07/07 10:03:06;;;;;;;5.40;3.38;;;;;;;;;;10346945;28;20033;-25
2021/07/07 10:08:09;;;;;;;6.35;3.05;;;;;;;;;;10351330;28;20050;-25
2021/07/07 10:13:15;;;;;;;4.43;3.17;;;;;;;;;;10352403;28;20054;-25
2021/07/07 10:18:19;;;;;;;3.97;2.85;;;;;;;;;;10351745;28;20072;-24
2021/07/07 10:23:22;;;;;;;4.03;3.05;;;;;;;;;;10347150;28;20048;-25
2021/07/07 10:28:33;;;;;;;6.37;3.20;;;;;;;;;;10346134;28;20120;-26
2021/07/07 10:33:38;;;;;;;5.60;3.13;;;;;;;;;;10348291;28;20038;-25
2021/07/07 10:38:49;;;;;;;3.92;3.22;;;;;;;;;;10344875;28;20558;-25
2021/07/07 10:43:51;;;;;;;4.60;3.15;;;;;;;;;;10350608;28;20045;-25
2021/07/07 10:49:16;;;;;;;4.68;2.40;;;;;;;;;;10348340;28;20046;-25
2021/07/07 10:54:20;;;;;;;4.10;2.60;;;;;;;;;;10346759;28;20080;-24
2021/07/07 10:59:29;;;;;;;4.53;2.70;;;;;;;;;;10350111;28;20049;-24
2021/07/07 11:04:34;;;;;;;4.68;2.58;;;;;;;;;;10345011;28;20478;-25
2021/07/07 11:09:38;;;;;;;4.65;2.75;;;;;;;;;;10352768;28;20265;-25
2021/07/07 11:14:57;;;;;;;3.42;2.08;;;;;;;;;;10346596;28;20049;-25
2021/07/07 11:20:04;;;;;;;3.92;2.13;;;;;;;;;;10352385;28;20038;-25
2021/07/07 11:25:08;;;;;;;5.03;1.95;;;;;;;;;;10344854;28;20035;-24
2021/07/07 11:30:11;;;;;;;3.40;2.45;;;;;;;;;;10348893;28;20060;-24
2021/07/07 11:35:17;;;;;;;6.07;2.38;;;;;;;;;;10344466;28;20046;-24
2021/07/07 11:40:20;;;;;;;4.47;2.10;;;;;;;;;;10351294;28;20042;-24
2021/07/07 11:45:25;;;;;;;5.88;2.60;;;;;;;;;;10349929;28;20042;-25
2021/07/07 11:50:30;;;;;;;3.38;2.47;;;;;;;;;;10348220;28;20088;-25
2021/07/07 11:55:46;;;;;;;4.45;2.63;;;;;;;;;;10345473;28;20041;-27
2021/07/07 12:00:48;;;;;;;4.95;2.70;;;;;;;;;;10348482;28;20049;-24
2021/07/07 12:05:57;;;;;;;4.38;2.80;;;;;;;;;;10347064;28;20046;-25
2021/07/07 12:11:14;;;;;;;5.97;3.10;;;;;;;;;;10345810;28;20092;-25
2021/07/07 12:16:21;;;;;;;4.88;2.95;;;;;;;;;;10357198;28;20398;-25
2021/07/07 12:21:36;;;;;;;3.85;2.63;;;;;;;;;;10355346;28;20053;-25
2021/07/07 12:26:40;;;;;;;4.80;2.80;;;;;;;;;;10357102;28;20069;-24
2021/07/07 12:31:43;;;;;;;3.67;3.15;;;;;;;;;;10349938;28;20068;-24
2021/07/07 12:36:52;;;;;;;5.45;2.65;;;;;;;;;;10355526;28;20409;-24
2021/07/07 12:41:59;;;;;;;4.70;2.70;;;;;;;;;;10349712;28;20053;-26
2021/07/07 12:47:03;;;;;;;6.68;2.85;;;;;;;;;;10351045;28;20509;-24
2021/07/07 12:52:27;;;;;;;4.97;2.42;;;;;;;;;;10354181;28;20037;-25
2021/07/07 12:57:51;;;;;;;4.03;2.50;;;;;;;;;;10341578;28;20054;-24
2021/07/07 13:02:56;;;;;;;4.68;2.78;;;;;;;;;;10329834;28;20054;-25
2021/07/07 13:07:59;;;;;;;3.83;2.80;;;;;;;;;;10366318;28;20180;-26
2021/07/07 13:13:21;;;;;;;4.38;2.80;;;;;;;;;;10352519;28;20034;-25
2021/07/07 13:18:25;;;;;;;5.38;3.03;;;;;;;;;;10353996;28;20073;-25
2021/07/07 13:23:29;;;;;;;4.00;2.85;;;;;;;;;;10352578;28;20054;-25
2021/07/07 13:28:32;;;;;;;3.95;3.25;;;;;;;;;;10352700;28;20042;-25
2021/07/07 13:33:36;;;;;;;5.53;2.92;;;;;;;;;;10346465;28;20056;-24
2021/07/07 13:38:38;;;;;;;3.95;3.15;;;;;;;;;;10348701;28;20057;-26
2021/07/07 13:43:43;;;;;;;7.38;3.05;;;;;;;;;;10349192;28;20050;-24
2021/07/07 13:48:48;;;;;;;4.20;3.15;;;;;;;;;;10349939;28;20069;-26
2021/07/07 13:53:52;;;;;;;6.28;2.97;;;;;;;;;;10344655;28;20088;-25
2021/07/07 13:58:56;;;;;;;4.50;3.13;;;;;;;;;;10339462;28;20045;-25
2021/07/07 14:04:00;;;;;;;4.43;2.45;;;;;;;;;;10338872;28;20057;-25
2021/07/07 14:09:03;;;;;;;2.85;2.55;;;;;;;;;;10342569;28;20042;-25
2021/07/07 14:14:06;;;;;;;4.45;2.35;;;;;;;;;;10342111;28;20126;-25
2021/07/07 14:19:11;;;;;;;4.20;2.90;;;;;;;;;;10346611;28;20053;-25
2021/07/07 14:24:14;;;;;;;3.83;2.60;;;;;;;;;;10340369;28;20053;-25
2021/07/07 14:29:16;;;;;;;5.90;2.60;;;;;;;;;;10347672;28;20053;-24
2021/07/07 14:34:21;;;;;;;3.17;2.45;;;;;;;;;;10345411;28;20052;-24
2021/07/07 14:39:24;;;;;;;2.88;2.35;;;;;;;;;;10344627;28;20584;-24
2021/07/07 14:44:27;;;;;;;2.45;2.13;;;;;;;;;;10349879;28;20034;-24
2021/07/07 14:49:31;;;;;;;4.85;2.30;;;;;;;;;;10348454;28;20046;-25
2021/07/07 14:54:34;;;;;;;3.17;2.30;;;;;;;;;;10346905;28;20038;-27
2021/07/07 14:59:38;;;;;;;3.03;2.28;;;;;;;;;;10347311;28;20046;-25
2021/07/07 15:04:42;;;;;;;3.10;2.17;;;;;;;;;;10345069;28;20045;-25
2021/07/07 15:09:45;;;;;;;4.13;2.28;;;;;;;;;;10344967;28;20419;-25
2021/07/07 15:14:47;;;;;;;5.95;2.88;;;;;;;;;;10347872;28;20030;-24
2021/07/07 15:19:51;;;;;;;3.42;2.22;;;;;;;;;;10346074;28;20054;-25
2021/07/07 15:24:54;;;;;;;2.55;2.00;;;;;;;;;;10347370;28;20038;-25
2021/07/07 15:29:57;;;;;;;2.33;1.95;;;;;;;;;;10345924;28;20057;-25
2021/07/07 15:35:01;;;;;;;5.05;2.20;;;;;;;;;;10346817;28;20054;-25
2021/07/07 15:40:05;;;;;;;2.72;1.88;;;;;;;;;;10343741;28;20049;-26
2021/07/07 15:45:08;;;;;;;2.92;2.10;;;;;;;;;;10343747;28;20395;-24
2021/07/07 15:50:12;;;;;;;3.33;2.00;;;;;;;;;;10351390;28;20531;-25
2021/07/07 15:55:15;;;;;;;2.63;1.92;;;;;;;;;;10353598;28;20034;-25
2021/07/07 16:00:18;;;;;;;3.17;1.88;;;;;;;;;;10353347;28;20042;-25
2021/07/07 16:05:22;;;;;;;2.95;1.65;;;;;;;;;;10353275;28;20145;-25
2021/07/07 16:10:25;;;;;;;2.75;1.70;;;;;;;;;;10349237;28;20065;-25
2021/07/07 16:15:27;;;;;;;2.70;1.80;;;;;;;;;;10351536;28;20479;-25
2021/07/07 16:20:32;;;;;;;1.40;1.10;;;;;;;;;;10353108;28;20038;-27
2021/07/07 16:25:34;;;;;;;1.60;1.25;;;;;;;;;;10350131;28;20060;-26
2021/07/07 16:30:37;;;;;;;1.98;1.40;;;;;;;;;;10351879;28;20062;-25
2021/07/07 16:35:41;;;;;;;1.75;1.35;;;;;;;;;;10351504;28;20041;-25
2021/07/07 16:40:44;;;;;;;1.67;1.30;;;;;;;;;;10350453;28;20070;-25
2021/07/07 16:45:47;;;;;;;1.73;1.27;;;;;;;;;;10351938;28;20040;-25
2021/07/07 16:50:52;;;;;;;2.47;1.30;;;;;;;;;;10350051;28;20056;-25
2021/07/07 16:55:55;;;;;;;1.08;0.90;;;;;;;;;;10350764;28;20038;-25
2021/07/07 17:00:58;;;;;;;1.42;1.10;;;;;;;;;;10352559;28;20041;-26
2021/07/07 17:06:03;;;;;;;2.38;1.20;;;;;;;;;;10347833;28;20046;-26
2021/07/07 17:11:05;;;;;;;1.65;1.10;;;;;;;;;;10346942;28;20406;-26
2021/07/07 17:16:09;;;;;;;2.63;1.38;;;;;;;;;;10339752;28;20042;-26
2021/07/07 17:21:14;;;;;;;2.15;0.90;;;;;;;;;;10339385;28;20148;-25
2021/07/07 17:26:17;;;;;;;2.15;1.38;;;;;;;;;;10346233;28;20046;-25
2021/07/07 17:31:20;;;;;;;1.90;1.30;;;;;;;;;;10346654;28;20053;-25
2021/07/07 17:36:24;;;;;;;1.95;1.15;;;;;;;;;;10341075;28;20056;-25
2021/07/07 17:41:27;;;;;;;1.33;1.23;;;;;;;;;;10342071;28;20053;-25
2021/07/07 17:46:30;;;;;;;1.88;1.10;;;;;;;;;;10342685;28;20034;-25
2021/07/07 17:51:34;;;;;;;2.28;1.30;;;;;;;;;;10342914;28;20431;-26
2021/07/07 17:56:37;;;;;;;1.50;1.10;;;;;;;;;;10342408;28;20462;-26
2021/07/07 18:01:40;;;;;;;2.05;1.38;;;;;;;;;;10342339;28;20371;-25
2021/07/07 18:06:45;;;;;;;2.30;1.00;;;;;;;;;;10344040;28;20480;-25
2021/07/07 18:11:47;;;;;;;1.15;0.93;;;;;;;;;;10342966;28;20597;-25
2021/07/07 18:16:51;;;;;;;1.80;1.13;;;;;;;;;;10342407;28;20046;-25
2021/07/07 18:21:55;;;;;;;1.63;1.25;;;;;;;;;;10340540;28;20048;-26
2021/07/07 18:26:58;;;;;;;1.40;1.30;;;;;;;;;;10338402;28;20046;-25
2021/07/07 18:32:01;;;;;;;1.40;1.05;;;;;;;;;;10344078;28;20044;-25
2021/07/07 18:37:05;;;;;;;1.40;1.30;;;;;;;;;;10342703;28;20053;-25
2021/07/07 18:42:08;;;;;;;1.42;1.10;;;;;;;;;;10344452;28;20064;-25
2021/07/07 18:47:11;;;;;;;2.33;1.33;;;;;;;;;;10340704;28;20050;-26
2021/07/07 18:52:16;;;;;;;2.53;1.40;;;;;;;;;;10341104;28;20343;-26
2021/07/07 18:57:19;;;;;;;2.22;1.40;;;;;;;;;;10335340;28;20509;-26
2021/07/07 19:02:22;;;;;;;3.00;1.50;;;;;;;;;;10338099;28;20048;-25
2021/07/07 19:07:26;;;;;;;1.58;1.30;;;;;;;;;;10342141;28;20116;-25
2021/07/07 19:12:29;;;;;;;2.83;1.25;;;;;;;;;;10341793;28;20045;-25
2021/07/07 19:17:32;;;;;;;2.58;1.52;;;;;;;;;;10342673;28;20133;-26
2021/07/07 19:22:36;;;;;;;2.35;1.40;;;;;;;;;;10344025;28;20455;-27
2021/07/07 19:27:40;;;;;;;1.77;1.30;;;;;;;;;;10337242;28;20054;-27
2021/07/07 19:32:44;;;;;;;1.98;1.55;;;;;;;;;;10336220;28;20057;-26
2021/07/07 19:37:50;;;;;;;1.42;1.33;;;;;;;;;;10336277;28;20181;-28
2021/07/07 19:42:54;;;;;;;2.40;1.50;;;;;;;;;;10332612;28;20050;-26
2021/07/07 19:47:59;;;;;;;2.65;1.60;;;;;;;;;;10336668;28;20125;-25
2021/07/07 19:53:03;;;;;;;3.50;1.70;;;;;;;;;;10341429;28;20038;-25
2021/07/07 19:58:06;;;;;;;2.60;1.75;;;;;;;;;;10342767;28;20037;-25
2021/07/07 20:03:08;;;;;;;2.05;1.50;;;;;;;;;;10337771;28;20038;-24
2021/07/07 20:08:12;;;;;;;2.55;1.90;;;;;;;;;;10338502;28;20034;-26
2021/07/07 20:13:15;;;;;;;2.42;1.90;;;;;;;;;;10342416;28;20548;-25
2021/07/07 20:18:18;;;;;;;3.05;1.63;;;;;;;;;;10345266;28;20041;-25
2021/07/07 20:23:22;;;;;;;2.03;1.50;;;;;;;;;;10346118;28;20038;-26
2021/07/07 20:28:25;;;;;;;1.95;1.70;;;;;;;;;;10339587;28;20050;-25
2021/07/07 20:33:29;;;;;;;3.13;1.70;;;;;;;;;;10343409;28;20084;-25
2021/07/07 20:38:34;;;;;;;2.63;1.83;;;;;;;;;;10347849;28;20042;-25
2021/07/07 20:43:40;;;;;;;2.88;1.77;;;;;;;;;;10348456;28;20133;-25
2021/07/07 20:48:42;;;;;;;3.45;2.30;;;;;;;;;;10350545;28;20069;-25
2021/07/07 20:53:47;;;;;;;3.08;2.20;;;;;;;;;;10350769;28;20055;-26
2021/07/07 20:58:49;;;;;;;2.35;2.08;;;;;;;;;;10351370;28;20037;-25
2021/07/07 21:03:53;;;;;;;4.60;2.63;;;;;;;;;;10344952;28;20049;-25
2021/07/07 21:08:57;;;;;;;4.95;2.10;;;;;;;;;;10348597;28;20395;-25
2021/07/07 21:14:00;;;;;;;2.35;2.13;;;;;;;;;;10347490;28;20582;-25
2021/07/07 21:19:03;;;;;;;5.18;2.30;;;;;;;;;;10350489;28;20042;-25
2021/07/07 21:24:08;;;;;;;4.35;2.70;;;;;;;;;;10349290;28;20038;-25
2021/07/07 21:29:12;;;;;;;4.43;2.80;;;;;;;;;;10349522;28;20054;-25
2021/07/07 21:34:15;;;;;;;4.07;2.58;;;;;;;;;;10349158;28;20129;-25
2021/07/07 21:39:23;;;;;;;3.45;2.67;;;;;;;;;;10348799;28;20046;-25
2021/07/07 21:44:26;;;;;;;3.10;2.42;;;;;;;;;;10350970;28;20542;-27
2021/07/07 21:49:29;;;;;;;2.58;2.15;;;;;;;;;;10351348;28;20145;-25
2021/07/07 21:54:33;;;;;;;3.25;2.47;;;;;;;;;;10351907;28;20124;-24
2021/07/07 21:59:36;;;;;;;2.80;2.50;;;;;;;;;;10347097;28;20379;-25
2021/07/07 22:04:39;;;;;;;2.90;2.15;;;;;;;;;;10349668;28;20038;-24
2021/07/07 22:09:43;;;;;;;4.03;2.42;;;;;;;;;;10347944;28;20053;-25
2021/07/07 22:14:45;;;;;;;2.22;1.88;;;;;;;;;;10348488;28;20100;-25
2021/07/07 22:19:48;;;;;;;3.92;1.90;;;;;;;;;;10350617;28;20044;-26
2021/07/07 22:24:52;;;;;;;2.53;1.90;;;;;;;;;;10348399;28;20042;-24
2021/07/07 22:29:55;;;;;;;5.47;2.35;;;;;;;;;;10348826;28;20050;-25
2021/07/07 22:34:58;;;;;;;3.08;2.22;;;;;;;;;;10349186;28;20676;-25
2021/07/07 22:40:02;;;;;;;2.85;2.45;;;;;;;;;;10346805;28;20041;-25
2021/07/07 22:45:07;;;;;;;2.60;2.10;;;;;;;;;;10346085;28;20045;-26
2021/07/07 22:50:13;;;;;;;4.00;1.98;;;;;;;;;;10348273;28;20042;-25
2021/07/07 22:55:17;;;;;;;2.53;2.00;;;;;;;;;;10344224;28;20064;-25
2021/07/07 23:00:20;;;;;;;3.13;2.08;;;;;;;;;;10344123;28;20521;-24
2021/07/07 23:05:26;;;;;;;2.97;2.15;;;;;;;;;;10346721;28;20100;-24
2021/07/07 23:10:32;;;;;;;3.22;2.20;;;;;;;;;;10346017;28;20383;-24
2021/07/07 23:15:35;;;;;;;4.25;2.00;;;;;;;;;;10346410;28;20053;-25
2021/07/07 23:20:38;;;;;;;2.53;2.20;;;;;;;;;;10346361;28;20038;-24
2021/07/07 23:25:42;;;;;;;4.40;2.38;;;;;;;;;;10347475;28;20050;-24
2021/07/07 23:30:45;;;;;;;3.88;2.20;;;;;;;;;;10346587;28;20042;-25
2021/07/07 23:35:48;;;;;;;2.83;1.98;;;;;;;;;;10344932;28;20045;-24
2021/07/07 23:40:52;;;;;;;4.45;2.00;;;;;;;;;;10347660;28;20037;-25
2021/07/07 23:45:54;;;;;;;4.13;1.98;;;;;;;;;;10345415;28;20041;-25
2021/07/07 23:50:57;;;;;;;4.00;1.85;;;;;;;;;;10347199;28;20041;-24
2021/07/07 23:56:01;;;;;;;3.40;2.38;;;;;;;;;;10346098;28;20463;-25
